createdAt,value
2022-12-19T00:01:36.331Z,58.97
2022-12-19T00:04:08.358Z,59.53
2022-12-19T00:06:37.511Z,55.43
2022-12-19T00:09:05.756Z,53.73
2022-12-19T00:11:33.621Z,63.00
2022-12-19T00:14:00.840Z,58.63
2022-12-19T00:16:29.735Z,61.80
2022-12-19T00:18:59.821Z,63.47
2022-12-19T00:21:29.178Z,56.43
2022-12-19T00:23:56.381Z,56.40
2022-12-19T00:26:26.137Z,59.80
2022-12-19T00:29:01.222Z,54.27
2022-12-19T00:31:30.784Z,54.03
2022-12-19T00:33:58.026Z,56.47
2022-12-19T00:36:27.342Z,64.27
2022-12-19T00:38:56.680Z,57.83
2022-12-19T00:41:26.403Z,54.57
2022-12-19T00:44:01.996Z,60.37
2022-12-19T00:46:30.900Z,55.37
2022-12-19T00:48:58.505Z,61.67
2022-12-19T00:51:27.796Z,51.63
2022-12-19T00:53:55.829Z,58.67
2022-12-19T00:56:28.353Z,55.87
2022-12-19T00:58:55.905Z,56.77
2022-12-19T01:01:26.948Z,57.17
2022-12-19T01:04:26.692Z,60.47
2022-12-19T01:06:41.249Z,53.27
2022-12-19T01:09:08.931Z,55.73
2022-12-19T01:11:54.163Z,56.07
2022-12-19T01:14:23.048Z,57.67
2022-12-19T01:16:51.292Z,56.67
2022-12-19T01:19:18.197Z,55.40
2022-12-19T01:21:44.890Z,54.40
2022-12-19T01:24:12.060Z,59.20
2022-12-19T01:26:40.565Z,51.13
2022-12-19T01:29:07.263Z,60.00
2022-12-19T01:31:34.097Z,54.80
2022-12-19T01:34:01.306Z,58.97
2022-12-19T01:36:28.473Z,57.43
2022-12-19T01:38:56.923Z,59.73
2022-12-19T01:41:24.057Z,58.33
2022-12-19T01:43:57.627Z,57.43
2022-12-19T01:46:46.232Z,58.85
2022-12-19T01:49:25.456Z,52.83
2022-12-19T01:51:55.322Z,54.23
2022-12-19T01:54:26.695Z,55.47
2022-12-19T01:56:57.304Z,55.80
2022-12-19T01:59:37.793Z,61.43
2022-12-19T02:02:25.504Z,57.17
2022-12-19T02:04:52.190Z,53.50
2022-12-19T02:07:22.130Z,55.27
2022-12-19T02:09:57.323Z,61.60
2022-12-19T02:12:32.397Z,53.43
2022-12-19T02:15:03.088Z,57.13
2022-12-19T02:18:03.672Z,58.57
2022-12-19T02:21:02.570Z,56.30
2022-12-19T02:23:47.698Z,56.67
2022-12-19T02:26:52.225Z,60.10
2022-12-19T02:29:48.634Z,55.08
2022-12-19T02:32:23.484Z,57.90
2022-12-19T02:34:57.169Z,64.20
2022-12-19T02:37:46.754Z,57.08
2022-12-19T02:40:34.573Z,56.43
2022-12-19T02:43:02.836Z,57.10
2022-12-19T02:45:34.905Z,61.27
2022-12-19T02:48:08.611Z,53.45
2022-12-19T02:50:54.033Z,57.63
2022-12-19T02:53:24.139Z,53.90
2022-12-19T02:56:11.312Z,60.77
2022-12-19T02:58:41.025Z,55.33
2022-12-19T03:01:45.717Z,63.03
2022-12-19T03:04:22.420Z,62.90
2022-12-19T03:07:12.674Z,63.23
2022-12-19T03:10:18.466Z,57.57
2022-12-19T03:12:54.948Z,55.33
2022-12-19T03:15:23.361Z,58.70
2022-12-19T03:17:50.906Z,56.93
2022-12-19T03:20:39.701Z,57.67
2022-12-19T03:23:06.778Z,55.37
2022-12-19T03:25:34.747Z,56.07
2022-12-19T03:28:06.727Z,52.13
2022-12-19T03:30:34.498Z,53.90
2022-12-19T03:33:02.824Z,53.07
2022-12-19T03:35:31.663Z,51.23
2022-12-19T03:38:03.073Z,49.33
2022-12-19T03:40:32.514Z,60.47
2022-12-19T03:43:09.562Z,57.17
2022-12-19T03:45:40.273Z,54.10
2022-12-19T03:48:43.651Z,48.73
2022-12-19T03:51:13.253Z,52.73
2022-12-19T03:53:46.069Z,52.13
2022-12-19T03:56:30.175Z,55.07
2022-12-19T03:59:09.860Z,54.65
2022-12-19T04:01:38.350Z,60.70
2022-12-19T04:04:06.614Z,49.10
2022-12-19T04:06:34.782Z,54.23
2022-12-19T04:09:02.393Z,56.13
2022-12-19T04:11:35.837Z,55.70
2022-12-19T04:14:10.418Z,58.17
2022-12-19T04:16:45.826Z,54.80
2022-12-19T04:19:24.079Z,53.77
2022-12-19T04:21:57.264Z,50.23
2022-12-19T04:24:34.280Z,64.97
2022-12-19T04:27:05.091Z,53.47
2022-12-19T04:29:34.185Z,50.30
2022-12-19T04:32:03.737Z,49.10
2022-12-19T04:34:33.715Z,55.17
2022-12-19T04:37:01.672Z,55.53
2022-12-19T04:39:29.005Z,52.60
2022-12-19T04:41:55.704Z,50.07
2022-12-19T04:44:22.398Z,59.83
2022-12-19T04:46:49.077Z,53.90
2022-12-19T04:49:15.737Z,50.47
2022-12-19T04:51:42.405Z,54.23
2022-12-19T04:54:09.325Z,56.47
2022-12-19T04:56:35.994Z,51.07
2022-12-19T04:59:02.627Z,53.07
2022-12-19T05:01:29.471Z,50.50
2022-12-19T05:04:01.247Z,50.73
2022-12-19T05:06:31.201Z,57.20
2022-12-19T05:08:57.920Z,53.97
2022-12-19T05:11:24.760Z,56.07
2022-12-19T05:13:51.699Z,54.23
2022-12-19T05:16:18.727Z,56.20
2022-12-19T05:18:45.660Z,57.97
2022-12-19T05:21:12.604Z,47.47
2022-12-19T05:23:39.330Z,52.30
2022-12-19T05:26:06.640Z,49.43
2022-12-19T05:28:33.590Z,54.03
2022-12-19T05:31:19.820Z,51.37
2022-12-19T05:33:47.418Z,46.67
2022-12-19T05:36:15.419Z,57.57
2022-12-19T05:38:42.529Z,50.80
2022-12-19T05:41:12.058Z,49.40
2022-12-19T05:43:38.783Z,54.10
2022-12-19T05:46:06.650Z,51.73
2022-12-19T05:48:33.652Z,50.87
2022-12-19T05:51:00.395Z,47.83
2022-12-19T05:53:29.896Z,54.87
2022-12-19T05:56:08.520Z,48.80
2022-12-19T05:58:36.297Z,46.57
2022-12-19T06:01:11.548Z,49.73
2022-12-19T06:03:38.562Z,49.30
2022-12-19T06:06:07.534Z,52.50
2022-12-19T06:08:34.459Z,47.03
2022-12-19T06:11:05.567Z,49.30
2022-12-19T06:13:32.470Z,45.57
2022-12-19T06:16:00.223Z,50.30
2022-12-19T06:18:28.032Z,47.47
2022-12-19T06:21:02.291Z,56.90
2022-12-19T06:23:33.962Z,48.97
2022-12-19T06:26:02.153Z,48.00
2022-12-19T06:28:30.596Z,50.30
2022-12-19T06:30:58.497Z,42.30
2022-12-19T06:33:26.149Z,44.93
2022-12-19T06:35:59.356Z,43.70
2022-12-19T06:38:26.869Z,46.70
2022-12-19T06:41:12.121Z,44.27
2022-12-19T06:43:39.078Z,41.23
2022-12-19T06:46:06.103Z,41.20
2022-12-19T06:48:33.005Z,48.93
2022-12-19T06:50:59.653Z,41.67
2022-12-19T06:53:26.425Z,48.43
2022-12-19T06:55:55.971Z,45.07
2022-12-19T06:58:24.527Z,42.93
2022-12-19T07:00:51.684Z,43.20
2022-12-19T07:03:23.790Z,45.37
2022-12-19T07:05:50.526Z,47.63
2022-12-19T07:08:17.211Z,39.53
2022-12-19T07:10:43.945Z,42.07
2022-12-19T07:13:10.785Z,42.27
2022-12-19T07:15:38.204Z,42.17
2022-12-19T07:18:07.251Z,42.30
2022-12-19T07:20:37.913Z,44.13
2022-12-19T07:23:07.607Z,41.33
2022-12-19T07:25:34.350Z,38.93
2022-12-19T07:28:01.407Z,42.40
2022-12-19T07:30:28.412Z,42.53
2022-12-19T07:32:55.253Z,45.07
2022-12-19T07:35:22.917Z,44.93
2022-12-19T07:37:50.550Z,43.60
2022-12-19T07:40:18.334Z,45.70
2022-12-19T07:42:45.793Z,41.40
2022-12-19T07:45:12.571Z,40.60
2022-12-19T07:47:39.231Z,41.13
2022-12-19T07:50:06.114Z,41.53
2022-12-19T07:52:33.013Z,39.97
2022-12-19T07:54:59.708Z,38.97
2022-12-19T07:57:26.393Z,44.23
2022-12-19T07:59:53.041Z,38.53
2022-12-19T08:02:20.094Z,44.73
2022-12-19T08:04:46.864Z,34.90
2022-12-19T08:07:13.763Z,45.50
2022-12-19T08:09:40.457Z,46.30
2022-12-19T08:12:07.371Z,38.40
2022-12-19T08:14:34.051Z,41.93
2022-12-19T08:23:31.858Z,45.50
2022-12-19T08:26:47.761Z,39.83
2022-12-19T08:29:14.662Z,43.27
2022-12-19T08:31:41.342Z,50.03
2022-12-19T08:34:08.003Z,42.90
2022-12-19T08:36:34.852Z,41.90
2022-12-19T08:39:01.478Z,43.63
2022-12-19T08:41:28.150Z,43.00
2022-12-19T08:43:55.907Z,37.90
2022-12-19T08:46:23.110Z,41.03
2022-12-19T08:48:50.686Z,47.17
2022-12-19T08:51:18.114Z,39.47
2022-12-19T08:53:46.292Z,39.40
2022-12-19T08:56:20.633Z,38.43
2022-12-19T08:58:48.084Z,40.37
2022-12-19T09:01:20.219Z,35.87
2022-12-19T09:04:40.900Z,42.83
2022-12-19T09:06:34.721Z,47.00
2022-12-19T09:09:02.333Z,37.27
2022-12-19T09:11:29.177Z,44.43
2022-12-19T09:13:57.339Z,43.37
2022-12-19T09:16:26.259Z,41.43
2022-12-19T09:18:55.436Z,38.63
2022-12-19T09:21:23.506Z,33.97
2022-12-19T09:23:53.732Z,39.37
2022-12-19T09:26:22.054Z,37.17
2022-12-19T09:28:50.332Z,40.23
2022-12-19T09:31:19.770Z,36.50
2022-12-19T09:33:46.738Z,40.17
2022-12-19T09:36:15.988Z,46.30
2022-12-19T09:38:43.201Z,42.25
2022-12-19T09:41:34.428Z,40.97
2022-12-19T09:44:30.531Z,36.92
2022-12-19T09:47:10.561Z,41.70
2022-12-19T09:49:41.954Z,45.28
2022-12-19T09:52:38.387Z,47.17
2022-12-19T09:55:17.043Z,39.40
2022-12-19T09:58:04.760Z,37.50
2022-12-19T10:00:40.294Z,44.78
2022-12-19T10:03:20.055Z,38.97
2022-12-19T10:07:10.474Z,38.72
2022-12-19T10:09:08.683Z,39.17
2022-12-19T10:12:43.072Z,40.95
2022-12-19T10:14:50.691Z,40.53
2022-12-19T10:17:35.610Z,38.35
2022-12-19T10:20:14.439Z,41.92
2022-12-19T10:22:51.261Z,41.80
2022-12-19T10:25:39.213Z,35.17
2022-12-19T10:28:35.930Z,40.45
2022-12-19T10:31:22.004Z,36.42
2022-12-19T10:34:17.336Z,38.70
2022-12-19T10:39:55.150Z,35.28
2022-12-19T10:42:53.684Z,40.05
2022-12-19T10:45:22.297Z,38.53
2022-12-19T10:47:54.695Z,35.53
2022-12-19T10:50:24.393Z,34.58
2022-12-19T10:53:07.134Z,36.10
2022-12-19T10:55:49.867Z,35.80
2022-12-19T10:58:25.885Z,35.65
2022-12-19T11:01:14.856Z,36.88
2022-12-19T11:03:44.246Z,36.67
2022-12-19T11:06:35.231Z,37.65
2022-12-19T11:09:23.400Z,34.15
2022-12-19T11:14:34.660Z,37.83
2022-12-19T11:19:34.641Z,34.72
2022-12-19T11:28:41.498Z,33.97
2022-12-19T11:29:30.229Z,38.10
2022-12-19T11:30:46.944Z,33.30
2022-12-19T11:30:58.903Z,36.47
2022-12-19T11:30:59.584Z,38.65
2022-12-19T11:34:31.548Z,39.72
2022-12-19T11:37:18.493Z,32.88
2022-12-19T11:40:15.180Z,36.55
2022-12-19T11:42:59.171Z,37.40
2022-12-19T11:46:22.292Z,33.70
2022-12-19T11:48:52.208Z,32.03
2022-12-19T11:51:40.112Z,40.22
2022-12-19T11:54:22.087Z,37.00
2022-12-19T11:56:48.775Z,39.35
2022-12-19T11:59:20.407Z,35.35
2022-12-19T12:02:05.033Z,40.75
2022-12-19T12:05:31.947Z,38.60
2022-12-19T12:10:07.711Z,33.80
2022-12-19T12:18:03.624Z,38.50
2022-12-19T12:26:48.965Z,37.20
2022-12-19T12:31:05.512Z,43.78
2022-12-19T12:31:10.365Z,38.08
2022-12-19T12:31:45.127Z,42.47
2022-12-19T12:31:46.195Z,40.30
2022-12-19T12:32:03.751Z,36.92
2022-12-19T12:35:29.285Z,39.03
2022-12-19T12:39:04.361Z,43.70
2022-12-19T12:42:09.305Z,44.67
2022-12-19T12:44:45.247Z,45.60
2022-12-19T12:47:20.636Z,43.35
2022-12-19T12:50:06.098Z,44.50
2022-12-19T12:52:35.527Z,43.38
2022-12-19T12:55:05.463Z,45.65
2022-12-19T12:57:37.946Z,39.70
2022-12-19T13:00:25.170Z,45.03
2022-12-19T13:02:54.054Z,42.47
2022-12-19T13:05:43.561Z,51.10
2022-12-19T13:08:45.598Z,44.65
2022-12-19T13:11:39.242Z,41.55
2022-12-19T13:14:26.967Z,49.63
2022-12-19T13:16:54.369Z,49.00
2022-12-19T13:19:30.325Z,50.70
2022-12-19T13:22:09.273Z,53.85
2022-12-19T13:24:52.398Z,50.95
2022-12-19T13:27:19.118Z,46.33
2022-12-19T13:30:00.829Z,53.50
2022-12-19T13:32:34.488Z,47.67
2022-12-19T13:35:57.599Z,56.38
2022-12-19T13:39:57.714Z,53.85
2022-12-19T13:41:01.797Z,54.65
2022-12-19T13:43:47.869Z,52.50
2022-12-19T13:46:38.049Z,52.53
2022-12-19T13:49:34.096Z,57.92
2022-12-19T13:52:04.396Z,51.42
2022-12-19T13:54:36.880Z,58.95
2022-12-19T13:57:09.594Z,54.53
2022-12-19T13:59:39.798Z,54.25
2022-12-19T14:02:44.724Z,60.53
2022-12-19T14:05:53.348Z,60.42
2022-12-19T14:08:23.604Z,55.72
2022-12-19T14:11:32.316Z,55.13
2022-12-19T14:14:12.629Z,56.72
2022-12-19T14:16:44.741Z,56.20
2022-12-19T14:19:24.460Z,57.53
2022-12-19T14:22:05.900Z,58.33
2022-12-19T14:24:39.782Z,61.75
2022-12-19T14:28:26.363Z,63.63
2022-12-19T14:30:30.903Z,60.50
2022-12-19T14:33:44.056Z,64.38
2022-12-19T14:36:12.072Z,57.50
2022-12-19T14:39:24.938Z,62.50
2022-12-19T14:42:06.829Z,59.30
2022-12-19T14:53:51.126Z,64.20
2022-12-19T14:53:51.438Z,61.88
2022-12-19T14:54:02.818Z,61.47
2022-12-19T14:54:26.485Z,63.83
2022-12-19T14:56:56.009Z,57.33
2022-12-19T14:59:05.400Z,63.85
2022-12-19T15:01:35.045Z,71.25
2022-12-19T15:04:52.947Z,66.90
2022-12-19T15:07:07.693Z,63.63
2022-12-19T15:10:57.866Z,59.60
2022-12-19T15:14:52.223Z,59.10
2022-12-19T15:16:05.033Z,61.17
2022-12-19T15:18:42.343Z,64.35
2022-12-19T15:21:14.461Z,72.85
2022-12-19T15:23:43.627Z,65.15
2022-12-19T15:26:16.846Z,70.47
2022-12-19T15:28:48.156Z,61.90
2022-12-19T15:31:38.577Z,60.05
2022-12-19T15:34:50.193Z,63.55
2022-12-19T15:37:17.116Z,67.60
2022-12-19T15:39:44.840Z,72.78
2022-12-19T15:42:22.669Z,67.47
2022-12-19T15:44:51.101Z,66.10
2022-12-19T15:47:32.995Z,63.97
2022-12-19T15:50:03.978Z,63.58
2022-12-19T15:52:30.760Z,72.40
2022-12-19T15:54:57.513Z,61.90
2022-12-19T15:57:27.349Z,66.32
2022-12-19T15:59:54.408Z,72.20
2022-12-19T16:02:24.665Z,71.68
2022-12-19T16:04:55.555Z,72.05
2022-12-19T16:07:26.676Z,62.70
2022-12-19T16:09:54.715Z,68.85
2022-12-19T16:12:31.925Z,62.72
2022-12-19T16:15:01.190Z,63.40
2022-12-19T16:17:31.995Z,66.32
2022-12-19T16:19:58.759Z,68.40
2022-12-19T16:22:27.737Z,65.53
2022-12-19T16:24:54.654Z,63.53
2022-12-19T16:27:30.406Z,65.88
2022-12-19T16:30:02.384Z,64.65
2022-12-19T16:32:29.155Z,67.55
2022-12-19T16:34:55.855Z,64.22
2022-12-19T16:37:25.869Z,58.70
2022-12-19T16:39:57.249Z,68.05
2022-12-19T16:42:23.906Z,71.90
2022-12-19T16:44:50.694Z,59.53
2022-12-19T16:47:18.127Z,68.32
2022-12-19T16:49:45.510Z,64.53
2022-12-19T16:52:12.701Z,66.72
2022-12-19T16:54:39.432Z,66.15
2022-12-19T16:57:12.369Z,73.80
2022-12-19T16:59:40.444Z,65.15
2022-12-19T17:02:36.345Z,67.10
2022-12-19T17:05:04.347Z,67.85
2022-12-19T17:07:31.818Z,64.30
2022-12-19T17:09:58.512Z,66.47
2022-12-19T17:12:27.588Z,66.18
2022-12-19T17:14:54.500Z,63.33
2022-12-19T17:17:21.216Z,61.78
2022-12-19T17:19:48.112Z,69.95
2022-12-19T17:22:17.139Z,69.78
2022-12-19T17:24:46.601Z,69.35
2022-12-19T17:27:14.129Z,59.05
2022-12-19T17:29:40.980Z,63.78
2022-12-19T17:32:11.424Z,65.53
2022-12-19T17:34:38.114Z,61.90
2022-12-19T17:37:05.480Z,60.50
2022-12-19T17:39:34.556Z,65.82
2022-12-19T17:42:13.707Z,61.13
2022-12-19T17:44:40.391Z,62.88
2022-12-19T17:47:07.096Z,71.30
2022-12-19T17:49:33.959Z,64.10
2022-12-19T17:52:00.795Z,71.55
2022-12-19T17:54:27.717Z,67.25
2022-12-19T17:56:55.058Z,63.38
2022-12-19T17:59:21.756Z,66.72
2022-12-19T18:01:48.813Z,66.22
2022-12-19T18:04:20.074Z,66.57
2022-12-19T18:06:47.580Z,66.65
2022-12-19T18:09:22.086Z,68.88
2022-12-19T18:11:49.805Z,66.28
2022-12-19T18:14:18.249Z,66.72
2022-12-19T18:16:45.805Z,64.00
2022-12-19T18:19:32.796Z,74.53
2022-12-19T18:21:59.557Z,69.18
2022-12-19T18:24:26.909Z,68.95
2022-12-19T18:26:53.687Z,69.70
2022-12-19T18:29:20.345Z,67.00
2022-12-19T18:31:51.009Z,66.07
2022-12-19T18:34:20.884Z,66.43
2022-12-19T18:36:47.578Z,63.78
2022-12-19T18:39:21.525Z,65.28
2022-12-19T18:41:48.529Z,68.53
2022-12-19T18:44:15.450Z,54.97
2022-12-19T18:46:42.880Z,67.85
2022-12-19T18:49:16.982Z,67.43
2022-12-19T18:54:20.539Z,59.17
2022-12-19T18:56:47.458Z,67.63
2022-12-19T18:59:14.692Z,64.15
2022-12-19T19:01:47.162Z,64.78
2022-12-19T19:04:17.459Z,65.97
2022-12-19T19:06:50.961Z,61.08
2022-12-19T19:09:20.405Z,59.75
2022-12-19T19:11:47.353Z,59.95
2022-12-19T19:14:14.494Z,60.55
2022-12-19T19:16:41.488Z,64.07
2022-12-19T19:19:11.853Z,66.95
2022-12-19T19:21:38.939Z,67.47
2022-12-19T19:24:20.579Z,65.13
2022-12-19T19:26:47.428Z,65.53
2022-12-19T19:29:14.832Z,67.38
2022-12-19T19:31:46.023Z,67.30
2022-12-19T19:34:19.402Z,64.72
2022-12-19T19:36:50.391Z,67.07
2022-12-19T19:39:19.589Z,72.22
2022-12-19T19:41:46.296Z,68.75
2022-12-19T19:44:13.004Z,66.57
2022-12-19T19:46:39.732Z,65.05
2022-12-19T19:49:06.464Z,66.70
2022-12-19T19:51:33.257Z,71.45
2022-12-19T19:53:59.897Z,69.43
2022-12-19T19:56:26.678Z,68.15
2022-12-19T19:58:55.283Z,65.50
2022-12-19T20:01:22.150Z,66.70
2022-12-19T20:03:49.511Z,59.67
2022-12-19T20:06:16.680Z,65.20
2022-12-19T20:08:43.417Z,68.22
2022-12-19T20:11:10.669Z,68.90
2022-12-19T20:13:38.468Z,68.15
2022-12-19T20:16:11.083Z,64.00
2022-12-19T20:18:39.964Z,64.07
2022-12-19T20:21:13.191Z,63.05
2022-12-19T20:23:41.602Z,66.00
2022-12-19T20:26:09.115Z,60.92
2022-12-19T20:28:35.802Z,60.95
2022-12-19T20:31:02.586Z,64.18
2022-12-19T20:33:29.396Z,56.92
2022-12-19T20:36:06.667Z,59.95
2022-12-19T20:38:33.471Z,63.75
2022-12-19T20:41:00.219Z,68.45
2022-12-19T20:43:27.156Z,66.20
2022-12-19T20:46:05.512Z,60.00
2022-12-19T20:48:32.907Z,59.03
2022-12-19T20:51:00.946Z,59.88
2022-12-19T20:53:28.086Z,63.35
2022-12-19T20:55:58.421Z,67.43
2022-12-19T20:58:29.591Z,60.88
2022-12-19T21:01:12.986Z,58.88
2022-12-19T21:03:40.891Z,59.45
2022-12-19T21:06:10.365Z,58.65
2022-12-19T21:08:37.942Z,58.03
2022-12-19T21:11:06.969Z,56.88
2022-12-19T21:13:34.535Z,62.67
2022-12-19T21:16:03.372Z,56.92
2022-12-19T21:18:30.703Z,58.80
2022-12-19T21:20:58.721Z,61.85
2022-12-19T21:23:25.574Z,59.67
2022-12-19T21:25:56.411Z,57.13
2022-12-19T21:28:23.454Z,58.13
2022-12-19T21:31:11.012Z,55.90
2022-12-19T21:33:37.725Z,59.78
2022-12-19T21:36:09.660Z,54.30
2022-12-19T21:38:37.706Z,63.75
2022-12-19T21:41:06.001Z,55.90
2022-12-19T21:43:33.722Z,51.53
2022-12-19T21:46:05.354Z,54.47
2022-12-19T21:48:36.287Z,50.22
2022-12-19T21:51:03.129Z,56.67
2022-12-19T21:53:29.984Z,57.72
2022-12-19T21:56:39.123Z,58.05
2022-12-19T21:59:10.656Z,57.90
2022-12-19T22:01:38.218Z,54.53
2022-12-19T22:04:12.334Z,53.05
2022-12-19T22:06:39.883Z,53.35
2022-12-19T22:09:08.798Z,50.53
2022-12-19T22:11:36.607Z,53.65
2022-12-19T22:14:04.963Z,49.90
2022-12-19T22:16:32.190Z,45.10
2022-12-19T22:18:59.220Z,51.65
2022-12-19T22:21:26.748Z,51.53
2022-12-19T22:24:00.646Z,48.97
2022-12-19T22:26:29.575Z,52.15
2022-12-19T22:28:57.563Z,50.83
2022-12-19T22:31:26.828Z,43.45
2022-12-19T22:33:56.365Z,46.28
2022-12-19T22:36:27.882Z,47.00
2022-12-19T22:38:56.644Z,48.33
2022-12-19T22:41:24.123Z,44.65
2022-12-19T22:43:51.195Z,48.80
2022-12-19T22:46:21.291Z,47.03
2022-12-19T22:48:49.416Z,48.85
2022-12-19T22:51:17.208Z,43.10
2022-12-19T22:53:44.448Z,49.63
2022-12-19T22:56:13.954Z,47.42
2022-12-19T22:58:42.455Z,43.33
2022-12-19T23:01:23.315Z,48.08
2022-12-19T23:03:52.123Z,44.28
2022-12-19T23:06:19.822Z,45.53
2022-12-19T23:08:47.377Z,45.47
2022-12-19T23:11:17.113Z,47.22
2022-12-19T23:13:45.851Z,44.58
2022-12-19T23:16:13.312Z,46.10
2022-12-19T23:18:41.142Z,40.22
2022-12-19T23:21:09.871Z,42.70
2022-12-19T23:23:42.361Z,45.33
2022-12-19T23:26:16.467Z,43.47
2022-12-19T23:31:13.129Z,41.60
2022-12-19T23:33:39.933Z,44.00
2022-12-19T23:36:07.771Z,40.58
2022-12-19T23:38:34.624Z,42.42
2022-12-19T23:41:09.216Z,40.88
2022-12-19T23:43:37.202Z,38.97
2022-12-19T23:46:09.102Z,43.60
2022-12-19T23:48:36.397Z,42.80
2022-12-19T23:51:15.045Z,44.67
2022-12-19T23:53:42.244Z,43.70
2022-12-19T23:56:14.897Z,42.20
2022-12-19T23:58:42.501Z,40.03
